Rothville, Missouri
Current Conditions -  °F | °C
As of 9:55 AM on Sunday 21 Dec 2014 (Local Time) from KIRK Reporting Station
Overcast Overcast  
Wind Chill: 33°   Ceiling: 2100
Heat Index: 40°   Visibility: 8mi
Dew Point: 37°   Wind: 12mph
Humidity: 89%   Direction: 160°SSE
Pressure: 30.06"   Gusts: NA
Location:  39.65°N, 93.06°W
Report Text: KIRK 211555Z AUTO 16010KT 8SM OVC021 04/03 A3006 RMK AO2 SLP188 T00440028
Loading
Personal Weather Stations






























Interactive Weather Map New forecast layout! Learn more

10-Day Weather Forecast

Advertisements
Track Severe Weather on mobile